createdAt,value
2019-03-21T00:01:18.135Z,25.45
2019-03-21T00:03:50.596Z,28.75
2019-03-21T00:06:21.094Z,25.95
2019-03-21T00:08:52.049Z,29.72
2019-03-21T00:11:55.023Z,26.95
2019-03-21T00:14:43.573Z,24.32
2019-03-21T00:17:22.999Z,24.07
2019-03-21T00:19:53.569Z,21.27
2019-03-21T00:22:24.422Z,24.25
2019-03-21T00:24:55.178Z,24.23
2019-03-21T00:27:26.242Z,26.27
2019-03-21T00:29:56.872Z,22.40
2019-03-21T00:32:27.625Z,25.12
2019-03-21T00:34:58.296Z,24.60
2019-03-21T00:37:29.135Z,24.10
2019-03-21T00:40:00.908Z,24.25
2019-03-21T00:42:31.478Z,28.25
2019-03-21T00:45:02.231Z,27.27
2019-03-21T00:47:32.987Z,29.85
2019-03-21T00:50:04.556Z,22.27
2019-03-21T00:52:36.129Z,23.77
2019-03-21T00:55:10.055Z,22.90
2019-03-21T00:57:40.500Z,25.48
2019-03-21T01:00:20.607Z,26.23
2019-03-21T01:02:51.916Z,19.35
2019-03-21T01:05:22.579Z,21.65
2019-03-21T01:07:53.435Z,23.62
2019-03-21T01:10:27.161Z,18.25
2019-03-21T01:12:58.066Z,19.98
2019-03-21T01:15:28.849Z,21.55
2019-03-21T01:17:59.725Z,19.60
2019-03-21T01:20:30.482Z,21.65
2019-03-21T01:23:01.419Z,21.65
2019-03-21T01:25:39.758Z,21.25
2019-03-21T01:28:10.600Z,21.27
2019-03-21T01:30:41.266Z,22.80
2019-03-21T01:33:12.124Z,25.40
2019-03-21T01:35:43.474Z,20.80
2019-03-21T01:38:13.940Z,25.70
2019-03-21T01:40:53.606Z,24.87
2019-03-21T01:43:24.448Z,28.03
2019-03-21T01:45:55.200Z,26.00
2019-03-21T01:48:26.262Z,23.12
2019-03-21T01:50:57.115Z,23.67
2019-03-21T01:53:27.869Z,23.32
2019-03-21T01:55:58.636Z,28.73
2019-03-21T01:58:29.478Z,24.18
2019-03-21T02:01:01.443Z,24.63
2019-03-21T02:03:32.198Z,24.07
2019-03-21T02:06:03.587Z,22.48
2019-03-21T02:08:34.418Z,26.93
2019-03-21T02:11:05.295Z,24.52
2019-03-21T02:13:35.945Z,24.45
2019-03-21T02:16:07.928Z,25.55
2019-03-21T02:18:38.477Z,26.12
2019-03-21T02:21:09.333Z,28.35
2019-03-21T02:23:40.088Z,24.47
2019-03-21T02:26:11.352Z,28.95
2019-03-21T02:28:42.208Z,26.57
2019-03-21T02:31:13.148Z,28.07
2019-03-21T02:36:16.724Z,26.73
2019-03-21T02:38:47.580Z,30.68
2019-03-21T02:41:18.335Z,26.30
2019-03-21T02:43:49.504Z,27.65
2019-03-21T02:46:20.352Z,27.90
2019-03-21T02:48:52.232Z,28.02
2019-03-21T02:51:24.420Z,27.77
2019-03-21T02:53:55.069Z,29.50
2019-03-21T02:56:26.743Z,24.60
2019-03-21T02:58:57.410Z,32.93
2019-03-21T03:01:29.259Z,33.08
2019-03-21T03:04:00.037Z,30.37
2019-03-21T03:06:31.507Z,31.50
2019-03-21T03:09:02.359Z,32.38
2019-03-21T03:11:33.094Z,29.02
2019-03-21T03:14:04.632Z,34.98
2019-03-21T03:16:35.329Z,31.87
2019-03-21T03:19:06.087Z,36.33
2019-03-21T03:21:36.840Z,32.65
2019-03-21T03:24:07.492Z,36.80
2019-03-21T03:26:38.450Z,37.63
2019-03-21T03:29:09.289Z,31.48
2019-03-21T03:31:40.042Z,34.25
2019-03-21T03:34:10.814Z,40.58
2019-03-21T03:36:41.670Z,45.65
2019-03-21T03:39:12.412Z,57.13
2019-03-21T03:41:43.381Z,60.05
2019-03-21T03:44:14.117Z,68.80
2019-03-21T03:46:44.769Z,61.15
2019-03-21T03:49:15.626Z,53.52
2019-03-21T03:51:46.397Z,57.35
2019-03-21T03:54:17.242Z,53.73
2019-03-21T03:56:48.109Z,62.35
2019-03-21T03:59:18.843Z,54.67
2019-03-21T04:01:50.661Z,54.20
2019-03-21T04:04:21.375Z,58.42
2019-03-21T04:06:52.131Z,48.80
2019-03-21T04:09:22.800Z,58.38
2019-03-21T04:11:53.638Z,56.60
2019-03-21T04:14:24.699Z,56.77
2019-03-21T04:19:25.186Z,63.47
2019-03-21T04:24:25.669Z,66.40
2019-03-21T04:26:56.643Z,59.70
2019-03-21T04:29:28.400Z,58.10
2019-03-21T04:31:59.382Z,46.25
2019-03-21T04:34:30.422Z,44.45
2019-03-21T04:37:01.191Z,40.55
2019-03-21T04:39:32.048Z,38.83
2019-03-21T04:42:03.109Z,34.27
2019-03-21T04:44:33.760Z,35.03
2019-03-21T04:47:05.025Z,32.45
2019-03-21T04:49:35.685Z,27.42
2019-03-21T04:54:36.245Z,29.52
2019-03-21T04:57:06.916Z,30.20
2019-03-21T04:59:37.771Z,30.50
2019-03-21T05:02:09.433Z,29.63
2019-03-21T05:04:41.415Z,29.27
2019-03-21T05:07:11.855Z,24.70
2019-03-21T05:09:42.628Z,24.85
2019-03-21T05:12:13.383Z,25.62
2019-03-21T05:14:44.034Z,27.42
2019-03-21T05:17:15.489Z,25.85
2019-03-21T05:22:16.074Z,24.05
2019-03-21T05:24:46.741Z,23.32
2019-03-21T05:27:17.598Z,25.97
2019-03-21T05:29:48.452Z,22.73
2019-03-21T05:32:20.232Z,30.48
2019-03-21T05:34:50.659Z,22.62
2019-03-21T05:37:21.433Z,25.05
2019-03-21T05:39:52.085Z,25.68
2019-03-21T05:42:23.144Z,24.95
2019-03-21T05:44:53.897Z,25.72
2019-03-21T05:47:24.531Z,26.37
2019-03-21T05:49:55.387Z,27.27
2019-03-21T05:52:26.245Z,26.97
2019-03-21T05:55:13.075Z,33.28
2019-03-21T05:57:45.360Z,25.48
2019-03-21T06:00:19.284Z,19.40
2019-03-21T06:02:51.061Z,20.43
2019-03-21T06:05:21.693Z,19.05
2019-03-21T06:08:01.668Z,22.85
2019-03-21T06:10:32.523Z,18.80
2019-03-21T06:13:03.156Z,18.30
2019-03-21T06:18:38.330Z,19.20
2019-03-21T06:21:23.913Z,18.42
2019-03-21T06:24:16.147Z,16.48
2019-03-21T06:27:02.034Z,15.23
2019-03-21T06:29:32.790Z,14.38
2019-03-21T06:32:03.627Z,16.17
2019-03-21T06:34:34.500Z,13.22
2019-03-21T06:37:05.460Z,16.07
2019-03-21T06:39:36.218Z,19.32
2019-03-21T06:42:06.966Z,13.28
2019-03-21T06:44:37.825Z,12.47
2019-03-21T06:47:08.578Z,18.25
2019-03-21T06:49:39.232Z,15.38
2019-03-21T06:52:10.068Z,13.75
2019-03-21T06:54:40.839Z,10.43
2019-03-21T06:57:11.593Z,16.25
2019-03-21T06:59:42.246Z,17.17
2019-03-21T07:02:13.001Z,11.97
2019-03-21T07:04:44.775Z,12.90
2019-03-21T07:07:15.614Z,10.78
2019-03-21T07:09:46.390Z,11.20
2019-03-21T07:12:17.034Z,7.47
2019-03-21T07:14:53.618Z,9.18
2019-03-21T07:17:24.273Z,19.75
2019-03-21T07:19:55.024Z,14.85
2019-03-21T07:22:25.766Z,10.55
2019-03-21T07:24:56.327Z,8.78
2019-03-21T07:29:56.812Z,15.60
2019-03-21T07:32:33.246Z,7.17
2019-03-21T07:34:59.648Z,7.58
2019-03-21T07:37:30.302Z,14.73
2019-03-21T07:40:01.057Z,11.40
2019-03-21T07:42:31.811Z,10.95
2019-03-21T07:45:02.463Z,10.40
2019-03-21T07:47:33.302Z,11.38
2019-03-21T07:50:04.686Z,10.40
2019-03-21T07:52:35.335Z,11.05
2019-03-21T07:55:07.565Z,11.08
2019-03-21T07:57:37.975Z,7.62
2019-03-21T08:00:18.955Z,8.33
2019-03-21T08:02:49.489Z,7.47
2019-03-21T08:05:21.178Z,9.45
2019-03-21T08:07:51.929Z,9.38
2019-03-21T08:10:22.584Z,13.15
2019-03-21T08:12:53.419Z,10.58
2019-03-21T08:15:24.171Z,12.00
2019-03-21T08:17:56.461Z,10.90
2019-03-21T08:20:27.136Z,13.32
2019-03-21T08:22:57.990Z,13.40
2019-03-21T08:25:28.845Z,12.07
2019-03-21T08:27:59.596Z,12.18
2019-03-21T08:30:33.112Z,5.30
2019-03-21T08:33:04.071Z,7.72
2019-03-21T08:35:34.809Z,7.70
2019-03-21T08:38:05.579Z,10.53
2019-03-21T08:40:36.228Z,9.98
2019-03-21T08:43:07.086Z,15.55
2019-03-21T08:45:37.943Z,7.28
2019-03-21T08:48:08.697Z,14.20
2019-03-21T08:50:39.348Z,13.15
2019-03-21T08:53:10.205Z,10.05
2019-03-21T08:55:40.957Z,9.83
2019-03-21T08:58:11.714Z,11.93
2019-03-21T09:00:42.363Z,12.35
2019-03-21T09:03:12.897Z,13.20
2019-03-21T09:05:44.670Z,8.15
2019-03-21T09:08:15.531Z,16.52
2019-03-21T09:10:46.181Z,10.10
2019-03-21T09:13:16.935Z,11.38
2019-03-21T09:15:47.808Z,13.10
2019-03-21T09:18:18.663Z,12.00
2019-03-21T09:20:49.416Z,12.93
2019-03-21T09:23:20.052Z,18.05
2019-03-21T09:25:51.403Z,9.13
2019-03-21T09:28:22.189Z,19.17
2019-03-21T09:30:53.048Z,12.20
2019-03-21T09:33:24.003Z,6.62
2019-03-21T09:35:54.656Z,11.18
2019-03-21T09:38:25.492Z,9.95
2019-03-21T09:40:56.249Z,16.27
2019-03-21T09:43:27.021Z,10.53
2019-03-21T09:45:57.674Z,14.23
2019-03-21T09:48:28.510Z,12.15
2019-03-21T09:50:59.280Z,11.78
2019-03-21T09:53:30.035Z,10.18
2019-03-21T09:56:01.297Z,12.33
2019-03-21T09:58:32.258Z,15.50
2019-03-21T10:01:02.793Z,10.98
2019-03-21T10:03:33.665Z,14.00
2019-03-21T10:06:05.344Z,12.30
2019-03-21T10:08:36.196Z,14.50
2019-03-21T10:11:06.950Z,10.95
2019-03-21T10:13:37.608Z,15.68
2019-03-21T10:16:08.457Z,12.65
2019-03-21T10:18:39.192Z,9.83
2019-03-21T10:21:09.965Z,15.83
2019-03-21T10:23:40.598Z,11.22
2019-03-21T10:26:11.371Z,10.38
2019-03-21T10:28:42.123Z,11.05
2019-03-21T10:31:12.876Z,12.88
2019-03-21T10:33:43.633Z,10.60
2019-03-21T10:36:16.067Z,14.90
2019-03-21T10:38:46.881Z,10.98
2019-03-21T10:41:17.532Z,9.60
2019-03-21T10:43:48.386Z,10.88
2019-03-21T10:46:19.122Z,12.95
2019-03-21T10:48:49.894Z,9.55
2019-03-21T10:51:20.528Z,10.72
2019-03-21T10:53:51.401Z,13.28
2019-03-21T10:56:22.155Z,9.40
2019-03-21T10:58:52.911Z,8.45
2019-03-21T11:01:23.539Z,9.45
2019-03-21T11:03:54.416Z,11.78
2019-03-21T11:06:26.091Z,13.45
2019-03-21T11:08:56.946Z,7.95
2019-03-21T11:11:27.702Z,11.90
2019-03-21T11:13:58.338Z,13.22
2019-03-21T11:16:31.400Z,13.80
2019-03-21T11:19:01.600Z,14.10
2019-03-21T11:21:32.352Z,11.10
2019-03-21T11:24:03.211Z,17.05
2019-03-21T11:26:33.943Z,16.80
2019-03-21T11:29:04.717Z,11.18
2019-03-21T11:31:35.370Z,14.85
2019-03-21T11:34:06.309Z,15.72
2019-03-21T11:36:38.647Z,11.18
2019-03-21T11:39:09.370Z,10.55
2019-03-21T11:41:40.026Z,11.28
2019-03-21T11:44:10.883Z,12.50
2019-03-21T11:46:41.631Z,14.38
2019-03-21T11:49:13.002Z,13.43
2019-03-21T11:51:43.765Z,13.40
2019-03-21T11:54:14.489Z,18.42
2019-03-21T11:56:45.051Z,14.47
2019-03-21T11:59:15.893Z,16.82
2019-03-21T12:01:48.199Z,15.75
2019-03-21T12:04:18.952Z,17.92
2019-03-21T12:06:50.523Z,13.05
2019-03-21T12:09:20.977Z,16.07
2019-03-21T12:11:51.606Z,15.58
2019-03-21T12:14:22.479Z,15.83
2019-03-21T12:16:53.336Z,17.15
2019-03-21T12:19:24.091Z,15.45
2019-03-21T12:21:54.622Z,21.35
2019-03-21T12:24:25.484Z,12.10
2019-03-21T12:26:56.250Z,14.15
2019-03-21T12:29:26.985Z,18.12
2019-03-21T12:31:57.346Z,19.23
2019-03-21T12:34:28.113Z,15.68
2019-03-21T12:36:58.841Z,17.95
2019-03-21T12:39:29.610Z,17.07
2019-03-21T12:42:00.364Z,19.75
2019-03-21T12:44:31.221Z,21.50
2019-03-21T12:47:02.078Z,18.77
2019-03-21T12:49:32.816Z,18.40
2019-03-21T12:52:03.483Z,14.95
2019-03-21T12:54:34.338Z,13.60
2019-03-21T12:57:04.970Z,16.57
2019-03-21T12:59:35.742Z,13.55
2019-03-21T13:02:06.397Z,15.45
2019-03-21T13:04:37.250Z,12.53
2019-03-21T13:07:09.029Z,18.10
2019-03-21T13:09:39.883Z,17.30
2019-03-21T13:12:10.520Z,22.13
2019-03-21T13:17:11.224Z,19.92
2019-03-21T13:19:41.877Z,19.95
2019-03-21T13:22:12.615Z,25.43
2019-03-21T13:24:43.471Z,31.05
2019-03-21T13:27:14.736Z,29.67
2019-03-21T13:29:45.303Z,29.32
2019-03-21T13:32:16.054Z,32.13
2019-03-21T13:34:46.913Z,28.70
2019-03-21T13:37:17.769Z,26.35
2019-03-21T13:39:48.624Z,25.37
2019-03-21T13:42:19.378Z,25.35
2019-03-21T13:44:50.227Z,30.05
2019-03-21T13:47:20.987Z,26.75
2019-03-21T13:49:51.746Z,20.85
2019-03-21T13:52:22.598Z,15.80
2019-03-21T13:54:53.352Z,17.52
2019-03-21T13:57:24.108Z,18.20
2019-03-21T13:59:54.746Z,17.35
2019-03-21T14:02:25.493Z,16.62
2019-03-21T14:04:56.268Z,19.15
2019-03-21T14:07:27.921Z,16.57
2019-03-21T14:09:58.673Z,21.33
2019-03-21T14:12:29.223Z,21.10
2019-03-21T14:17:29.715Z,22.43
2019-03-21T14:20:00.380Z,24.18
2019-03-21T14:22:31.115Z,22.65
2019-03-21T14:25:01.976Z,25.17
2019-03-21T14:27:32.744Z,27.20
2019-03-21T14:30:04.196Z,27.00
2019-03-21T14:32:34.556Z,24.77
2019-03-21T14:35:07.645Z,24.98
2019-03-21T14:37:38.011Z,28.87
2019-03-21T14:40:13.859Z,21.70
2019-03-21T14:42:44.294Z,22.00
2019-03-21T14:45:17.633Z,29.82
2019-03-21T14:47:48.069Z,20.95
2019-03-21T14:50:18.733Z,27.25
2019-03-21T14:52:49.593Z,27.90
2019-03-21T14:55:20.445Z,22.60
2019-03-21T14:57:51.198Z,29.65
2019-03-21T15:00:21.743Z,26.80
2019-03-21T15:02:52.604Z,30.65
2019-03-21T15:05:23.358Z,23.42
2019-03-21T15:07:55.032Z,27.40
2019-03-21T15:10:25.769Z,22.10
2019-03-21T15:12:56.440Z,23.47
2019-03-21T15:15:27.092Z,28.02
2019-03-21T15:17:58.787Z,25.65
2019-03-21T15:20:29.518Z,36.25
2019-03-21T15:23:00.382Z,30.20
2019-03-21T15:25:31.163Z,33.67
2019-03-21T15:28:01.984Z,26.52
2019-03-21T15:30:32.822Z,23.38
2019-03-21T15:33:03.598Z,20.40
2019-03-21T15:35:34.350Z,23.47
2019-03-21T15:38:05.102Z,20.43
2019-03-21T15:40:35.839Z,23.83
2019-03-21T15:43:06.609Z,17.70
2019-03-21T15:45:37.715Z,19.87
2019-03-21T15:48:08.430Z,24.60
2019-03-21T15:50:38.737Z,26.62
2019-03-21T15:55:38.862Z,25.85
2019-03-21T16:00:52.540Z,23.27
2019-03-21T16:06:46.679Z,24.65
2019-03-21T16:09:18.072Z,30.48
2019-03-21T16:11:48.526Z,26.02
2019-03-21T16:14:20.705Z,32.55
2019-03-21T16:16:51.210Z,28.50
2019-03-21T16:19:22.213Z,27.20
2019-03-21T16:21:52.972Z,28.12
2019-03-21T16:24:23.717Z,30.27
2019-03-21T16:26:54.352Z,33.00
2019-03-21T16:29:25.234Z,27.82
2019-03-21T16:31:56.083Z,31.10
2019-03-21T16:34:26.732Z,28.70
2019-03-21T16:36:57.589Z,32.83
2019-03-21T16:39:28.454Z,31.95
2019-03-21T16:42:02.364Z,29.30
2019-03-21T16:44:33.040Z,27.27
2019-03-21T16:47:05.400Z,27.75
2019-03-21T16:49:35.842Z,30.48
2019-03-21T16:52:07.229Z,33.30
2019-03-21T16:54:37.778Z,29.23
2019-03-21T16:57:08.616Z,27.87
2019-03-21T16:59:40.953Z,34.15
2019-03-21T17:02:12.698Z,36.55
2019-03-21T17:04:43.307Z,31.80
2019-03-21T17:09:44.331Z,24.27
2019-03-21T17:12:15.065Z,31.55
2019-03-21T17:14:47.931Z,29.72
2019-03-21T17:17:20.062Z,29.07
2019-03-21T17:19:50.462Z,28.92
2019-03-21T17:22:22.761Z,31.80
2019-03-21T17:24:53.137Z,33.83
2019-03-21T17:27:24.978Z,34.13
2019-03-21T17:29:55.313Z,32.65
2019-03-21T17:32:25.691Z,36.98
2019-03-21T17:34:56.255Z,35.33
2019-03-21T17:39:56.088Z,36.95
2019-03-21T17:42:26.456Z,42.13
2019-03-21T17:44:56.725Z,37.95
2019-03-21T17:47:27.070Z,39.30
2019-03-21T17:52:27.089Z,29.25
2019-03-21T17:54:57.414Z,23.05
2019-03-21T17:59:59.121Z,24.60
2019-03-21T18:02:29.486Z,25.25
2019-03-21T18:04:59.816Z,21.07
2019-03-21T18:07:30.171Z,20.80
2019-03-21T18:10:01.799Z,19.42
2019-03-21T18:12:32.274Z,19.42
2019-03-21T18:15:03.230Z,21.37
2019-03-21T18:17:33.864Z,15.78
2019-03-21T18:20:06.216Z,14.65
2019-03-21T18:22:36.824Z,14.55
2019-03-21T18:25:07.764Z,17.00
2019-03-21T18:30:08.672Z,15.45
2019-03-21T18:32:39.408Z,13.68
2019-03-21T18:35:10.081Z,13.70
2019-03-21T18:37:42.973Z,14.47
2019-03-21T18:40:13.735Z,19.32
2019-03-21T18:42:44.469Z,15.78
2019-03-21T18:45:16.640Z,13.40
2019-03-21T18:47:47.636Z,17.73
2019-03-21T18:50:18.804Z,17.85
2019-03-21T18:52:50.625Z,20.60
2019-03-21T18:55:21.513Z,19.27
2019-03-21T18:57:52.838Z,19.52
2019-03-21T19:00:23.571Z,20.75
2019-03-21T19:02:54.385Z,15.58
2019-03-21T19:05:25.264Z,17.85
2019-03-21T19:10:25.201Z,17.30
2019-03-21T19:15:25.915Z,26.15
2019-03-21T19:17:56.429Z,15.15
2019-03-21T19:20:27.110Z,17.60
2019-03-21T19:22:59.662Z,17.80
2019-03-21T19:25:30.164Z,16.97
2019-03-21T19:28:01.007Z,17.95
2019-03-21T19:30:31.776Z,12.45
2019-03-21T19:33:02.429Z,16.55
2019-03-21T19:35:33.287Z,17.73
2019-03-21T19:38:04.149Z,13.35
2019-03-21T19:40:35.200Z,10.10
2019-03-21T19:43:05.835Z,9.03
2019-03-21T19:45:36.383Z,10.00
2019-03-21T19:48:07.245Z,11.25
2019-03-21T19:50:38.010Z,9.68
2019-03-21T19:55:38.496Z,10.37
2019-03-21T19:58:09.132Z,11.03
2019-03-21T20:00:40.005Z,10.13
2019-03-21T20:03:10.738Z,9.30
2019-03-21T20:08:11.243Z,9.57
2019-03-21T20:13:12.343Z,12.53
2019-03-21T20:15:43.096Z,13.05
2019-03-21T20:18:13.736Z,12.98
2019-03-21T20:20:44.603Z,14.50
2019-03-21T20:23:15.360Z,12.10
2019-03-21T20:25:45.993Z,14.60
2019-03-21T20:30:46.598Z,15.95
2019-03-21T20:33:17.247Z,12.63
2019-03-21T20:35:47.882Z,14.68
2019-03-21T20:38:18.862Z,12.23
2019-03-21T20:40:49.615Z,13.62
2019-03-21T20:43:20.262Z,12.75
2019-03-21T20:45:51.103Z,13.32
2019-03-21T20:48:31.065Z,15.03
2019-03-21T20:51:01.626Z,12.78
2019-03-21T20:56:02.009Z,14.35
2019-03-21T20:58:32.763Z,15.75
2019-03-21T21:01:04.114Z,17.30
2019-03-21T21:03:34.663Z,22.35
2019-03-21T21:06:05.640Z,22.90
2019-03-21T21:08:36.273Z,17.95
2019-03-21T21:16:07.429Z,18.60
2019-03-21T21:18:38.283Z,19.85
2019-03-21T21:21:09.021Z,15.58
2019-03-21T21:23:39.772Z,16.48
2019-03-21T21:26:10.443Z,16.05
2019-03-21T21:28:41.311Z,18.35
2019-03-21T21:31:12.679Z,17.95
2019-03-21T21:33:43.430Z,17.52
2019-03-21T21:36:21.977Z,16.95
2019-03-21T21:38:46.445Z,20.20
2019-03-21T21:41:17.112Z,17.35
2019-03-21T21:43:47.968Z,17.15
2019-03-21T21:46:18.827Z,17.07
2019-03-21T21:48:49.579Z,20.85
2019-03-21T21:51:20.231Z,23.42
2019-03-21T21:53:51.087Z,21.23
2019-03-21T21:56:21.949Z,21.80
2019-03-21T21:58:52.783Z,47.03
2019-03-21T22:01:23.655Z,73.40
2019-03-21T22:04:04.127Z,84.58
2019-03-21T22:06:26.495Z,101.65
2019-03-21T22:08:57.348Z,196.40
2019-03-21T22:11:29.024Z,211.97
2019-03-21T22:13:59.760Z,211.12
2019-03-21T22:16:30.534Z,162.00
2019-03-21T22:19:01.163Z,86.85
2019-03-21T22:21:31.835Z,73.95
2019-03-21T22:24:02.673Z,70.42
2019-03-21T22:26:33.545Z,73.35
2019-03-21T22:29:04.300Z,72.97
2019-03-21T22:31:34.933Z,61.42
2019-03-21T22:34:05.791Z,57.83
2019-03-21T22:36:48.621Z,44.50
2019-03-21T22:39:08.954Z,62.38
2019-03-21T22:41:39.809Z,66.50
2019-03-21T22:44:10.560Z,74.60
2019-03-21T22:46:41.195Z,60.17
2019-03-21T22:51:41.680Z,42.25
2019-03-21T22:54:12.452Z,42.93
2019-03-21T22:56:43.103Z,46.55
2019-03-21T22:59:13.964Z,50.48
2019-03-21T23:01:44.595Z,55.78
2019-03-21T23:04:15.060Z,51.45
2019-03-21T23:06:45.693Z,51.05
2019-03-21T23:11:47.116Z,34.53
2019-03-21T23:14:17.874Z,37.90
2019-03-21T23:16:48.505Z,29.82
2019-03-21T23:21:49.500Z,34.00
2019-03-21T23:24:20.255Z,28.67
2019-03-21T23:26:53.065Z,28.87
2019-03-21T23:29:23.206Z,32.38
2019-03-21T23:34:23.697Z,31.63
2019-03-21T23:36:54.433Z,48.80
2019-03-21T23:39:25.426Z,33.38
2019-03-21T23:41:56.261Z,34.83
2019-03-21T23:44:26.897Z,31.77
2019-03-21T23:49:27.486Z,26.40
2019-03-21T23:51:58.150Z,31.25
2019-03-21T23:54:28.891Z,32.17
2019-03-21T23:57:04.457Z,36.75
2019-03-21T23:59:31.849Z,29.87
